EGPF/GLA METAR and TAF weather

Enter ICAO airport designator
Station Type Date Time Source
EGPF METAR 2020/07/04 02:20 UTC NOAA

EGPF 040220Z AUTO 21005KT 9999 NCD 09/08 Q1004


Station Type Date Time Source
EGPF Decoded METAR 2020/07/04 02:20 UTC NOAA

Glasgow Airport, United Kingdom (EGPF) 55-52N 004-26W 0M
Jul 03, 2020 - 10:20 PM EDT / 2020.07.04 0220 UTC
Wind: from the SSW (210 degrees) at 6 MPH (5 KT):0
Visibility: greater than 7 mile(s):0
Temperature: 48 F (9 C)
Dew Point: 46 F (8 C)
Relative Humidity: 93%
Pressure (altimeter): 29.65 in. Hg (1004 hPa)
ob: EGPF 040220Z AUTO 21005KT 9999 NCD 09/08 Q1004
cycle: 2

Station Type Date Time Source
EGPF TAF 2020/07/03 18:09 UTC NOAA

TAF EGPF 031654Z 0318/0418 24009KT 9999 SCT020 PROB30
TEMPO 0318/0319 8000 -RA PROB30
TEMPO 0318/0405 BKN014
TEMPO 0405/0413 6000 RA BKN012 PROB30
TEMPO 0406/0412 4000 RADZ BKN008 PROB40
TEMPO 0413/0418 BKN014

Example: see airport list